sensor_id;sensor_type;location;lat;lon;timestamp;P1;durP1;ratioP1;P2;durP2;ratioP2
43606;SDS011;29197;44.788;10.366;2023-05-23T00:00:28;15.18;;;10.60;;
43606;SDS011;29197;44.788;10.366;2023-05-23T00:03:19;13.48;;;9.60;;
43606;SDS011;29197;44.788;10.366;2023-05-23T00:06:08;13.13;;;8.65;;
43606;SDS011;29197;44.788;10.366;2023-05-23T00:08:58;15.15;;;9.25;;
43606;SDS011;29197;44.788;10.366;2023-05-23T00:11:47;10.90;;;8.68;;
43606;SDS011;29197;44.788;10.366;2023-05-23T00:14:36;14.02;;;9.25;;
43606;SDS011;29197;44.788;10.366;2023-05-23T00:17:25;14.75;;;9.60;;
43606;SDS011;29197;44.788;10.366;2023-05-23T00:20:14;13.07;;;9.57;;
43606;SDS011;29197;44.788;10.366;2023-05-23T00:23:03;12.32;;;9.43;;
43606;SDS011;29197;44.788;10.366;2023-05-23T00:25:54;13.80;;;10.18;;
43606;SDS011;29197;44.788;10.366;2023-05-23T00:28:44;14.07;;;9.07;;
43606;SDS011;29197;44.788;10.366;2023-05-23T00:31:32;13.80;;;8.95;;
43606;SDS011;29197;44.788;10.366;2023-05-23T00:34:21;10.18;;;8.00;;
43606;SDS011;29197;44.788;10.366;2023-05-23T00:37:10;12.63;;;8.75;;
43606;SDS011;29197;44.788;10.366;2023-05-23T00:39:59;11.10;;;8.82;;
43606;SDS011;29197;44.788;10.366;2023-05-23T00:42:49;9.55;;;8.23;;
43606;SDS011;29197;44.788;10.366;2023-05-23T00:45:38;11.02;;;7.88;;
43606;SDS011;29197;44.788;10.366;2023-05-23T00:48:27;10.77;;;8.18;;
43606;SDS011;29197;44.788;10.366;2023-05-23T00:51:16;9.35;;;8.13;;
43606;SDS011;29197;44.788;10.366;2023-05-23T00:54:06;19.98;;;9.05;;
43606;SDS011;29197;44.788;10.366;2023-05-23T00:56:54;12.98;;;8.55;;
43606;SDS011;29197;44.788;10.366;2023-05-23T00:59:45;10.20;;;8.45;;
43606;SDS011;29197;44.788;10.366;2023-05-23T01:02:35;9.95;;;8.10;;
43606;SDS011;29197;44.788;10.366;2023-05-23T01:05:24;10.27;;;8.13;;
43606;SDS011;29197;44.788;10.366;2023-05-23T01:08:13;11.07;;;8.00;;
43606;SDS011;29197;44.788;10.366;2023-05-23T01:11:03;11.90;;;8.40;;
43606;SDS011;29197;44.788;10.366;2023-05-23T01:13:55;12.20;;;8.05;;
43606;SDS011;29197;44.788;10.366;2023-05-23T01:16:47;10.40;;;9.05;;
43606;SDS011;29197;44.788;10.366;2023-05-23T01:19:47;13.18;;;10.05;;
43606;SDS011;29197;44.788;10.366;2023-05-23T01:22:48;11.73;;;9.18;;
43606;SDS011;29197;44.788;10.366;2023-05-23T01:25:45;10.73;;;8.63;;
43606;SDS011;29197;44.788;10.366;2023-05-23T01:28:42;12.00;;;8.73;;
43606;SDS011;29197;44.788;10.366;2023-05-23T01:31:33;10.48;;;8.52;;
43606;SDS011;29197;44.788;10.366;2023-05-23T01:34:22;14.85;;;9.23;;
43606;SDS011;29197;44.788;10.366;2023-05-23T01:37:11;13.73;;;8.82;;
43606;SDS011;29197;44.788;10.366;2023-05-23T01:40:04;13.88;;;9.35;;
43606;SDS011;29197;44.788;10.366;2023-05-23T01:42:53;17.15;;;9.82;;
43606;SDS011;29197;44.788;10.366;2023-05-23T01:45:45;14.80;;;10.45;;
43606;SDS011;29197;44.788;10.366;2023-05-23T01:48:34;15.02;;;11.68;;
43606;SDS011;29197;44.788;10.366;2023-05-23T01:51:24;15.35;;;10.85;;
43606;SDS011;29197;44.788;10.366;2023-05-23T01:54:14;12.85;;;10.48;;
43606;SDS011;29197;44.788;10.366;2023-05-23T01:57:05;15.40;;;11.85;;
43606;SDS011;29197;44.788;10.366;2023-05-23T01:59:54;12.43;;;9.70;;
43606;SDS011;29197;44.788;10.366;2023-05-23T02:02:44;17.20;;;10.40;;
43606;SDS011;29197;44.788;10.366;2023-05-23T02:05:33;17.50;;;11.07;;
43606;SDS011;29197;44.788;10.366;2023-05-23T02:08:22;12.57;;;10.38;;
43606;SDS011;29197;44.788;10.366;2023-05-23T02:11:10;12.82;;;10.38;;
43606;SDS011;29197;44.788;10.366;2023-05-23T02:14:00;17.35;;;11.05;;
43606;SDS011;29197;44.788;10.366;2023-05-23T02:16:49;16.27;;;11.55;;
43606;SDS011;29197;44.788;10.366;2023-05-23T02:19:40;14.57;;;10.52;;
43606;SDS011;29197;44.788;10.366;2023-05-23T02:22:29;13.30;;;10.98;;
43606;SDS011;29197;44.788;10.366;2023-05-23T02:25:18;14.90;;;10.35;;
43606;SDS011;29197;44.788;10.366;2023-05-23T02:28:07;14.73;;;9.90;;
43606;SDS011;29197;44.788;10.366;2023-05-23T02:30:57;16.35;;;11.05;;
43606;SDS011;29197;44.788;10.366;2023-05-23T02:33:46;13.73;;;9.85;;
43606;SDS011;29197;44.788;10.366;2023-05-23T02:36:36;12.20;;;9.68;;
43606;SDS011;29197;44.788;10.366;2023-05-23T02:39:26;10.70;;;9.43;;
43606;SDS011;29197;44.788;10.366;2023-05-23T02:42:14;13.13;;;10.50;;
43606;SDS011;29197;44.788;10.366;2023-05-23T02:45:03;14.80;;;9.73;;
43606;SDS011;29197;44.788;10.366;2023-05-23T02:47:52;22.50;;;12.02;;
43606;SDS011;29197;44.788;10.366;2023-05-23T02:50:41;13.07;;;9.82;;
43606;SDS011;29197;44.788;10.366;2023-05-23T02:53:32;14.00;;;10.48;;
43606;SDS011;29197;44.788;10.366;2023-05-23T02:56:20;14.55;;;11.13;;
43606;SDS011;29197;44.788;10.366;2023-05-23T02:59:09;16.55;;;11.13;;
43606;SDS011;29197;44.788;10.366;2023-05-23T03:01:59;12.50;;;9.02;;
43606;SDS011;29197;44.788;10.366;2023-05-23T03:04:48;14.32;;;10.43;;
43606;SDS011;29197;44.788;10.366;2023-05-23T03:07:37;20.42;;;11.27;;
43606;SDS011;29197;44.788;10.366;2023-05-23T03:10:27;14.90;;;11.00;;
43606;SDS011;29197;44.788;10.366;2023-05-23T03:13:16;14.85;;;10.00;;
43606;SDS011;29197;44.788;10.366;2023-05-23T03:16:05;14.77;;;10.82;;
43606;SDS011;29197;44.788;10.366;2023-05-23T03:18:54;14.05;;;10.15;;
43606;SDS011;29197;44.788;10.366;2023-05-23T03:21:42;13.13;;;10.13;;
43606;SDS011;29197;44.788;10.366;2023-05-23T03:24:31;14.85;;;11.25;;
43606;SDS011;29197;44.788;10.366;2023-05-23T03:27:21;14.68;;;11.13;;
43606;SDS011;29197;44.788;10.366;2023-05-23T03:30:10;14.95;;;10.63;;
43606;SDS011;29197;44.788;10.366;2023-05-23T03:32:59;14.18;;;10.52;;
43606;SDS011;29197;44.788;10.366;2023-05-23T03:35:48;13.90;;;10.93;;
43606;SDS011;29197;44.788;10.366;2023-05-23T03:38:38;16.52;;;11.07;;
43606;SDS011;29197;44.788;10.366;2023-05-23T03:41:27;15.52;;;10.93;;
43606;SDS011;29197;44.788;10.366;2023-05-23T03:44:17;14.00;;;10.27;;
43606;SDS011;29197;44.788;10.366;2023-05-23T03:47:06;12.32;;;9.63;;
43606;SDS011;29197;44.788;10.366;2023-05-23T03:49:55;16.65;;;10.05;;
43606;SDS011;29197;44.788;10.366;2023-05-23T03:52:43;16.00;;;11.35;;
43606;SDS011;29197;44.788;10.366;2023-05-23T03:55:32;12.95;;;9.60;;
43606;SDS011;29197;44.788;10.366;2023-05-23T03:58:21;15.32;;;10.93;;
43606;SDS011;29197;44.788;10.366;2023-05-23T04:01:11;10.93;;;9.13;;
43606;SDS011;29197;44.788;10.366;2023-05-23T04:04:00;14.75;;;10.05;;
43606;SDS011;29197;44.788;10.366;2023-05-23T04:06:50;13.65;;;9.20;;
43606;SDS011;29197;44.788;10.366;2023-05-23T04:09:39;13.25;;;9.88;;
43606;SDS011;29197;44.788;10.366;2023-05-23T04:12:28;11.00;;;9.02;;
43606;SDS011;29197;44.788;10.366;2023-05-23T04:15:17;15.00;;;9.40;;
43606;SDS011;29197;44.788;10.366;2023-05-23T04:18:09;13.55;;;10.52;;
43606;SDS011;29197;44.788;10.366;2023-05-23T04:20:58;15.70;;;10.45;;
43606;SDS011;29197;44.788;10.366;2023-05-23T04:23:46;11.63;;;9.75;;
43606;SDS011;29197;44.788;10.366;2023-05-23T04:26:35;12.18;;;9.82;;
43606;SDS011;29197;44.788;10.366;2023-05-23T04:29:25;15.35;;;12.02;;
43606;SDS011;29197;44.788;10.366;2023-05-23T04:32:17;14.40;;;10.50;;
43606;SDS011;29197;44.788;10.366;2023-05-23T04:35:10;11.95;;;9.82;;
43606;SDS011;29197;44.788;10.366;2023-05-23T04:38:00;12.73;;;9.38;;
43606;SDS011;29197;44.788;10.366;2023-05-23T04:40:49;12.63;;;11.02;;
43606;SDS011;29197;44.788;10.366;2023-05-23T04:43:39;15.27;;;10.05;;
43606;SDS011;29197;44.788;10.366;2023-05-23T04:46:28;12.00;;;9.77;;
43606;SDS011;29197;44.788;10.366;2023-05-23T04:49:17;13.05;;;9.88;;
43606;SDS011;29197;44.788;10.366;2023-05-23T04:52:09;13.38;;;10.32;;
43606;SDS011;29197;44.788;10.366;2023-05-23T04:54:59;16.67;;;10.68;;
43606;SDS011;29197;44.788;10.366;2023-05-23T04:57:48;13.57;;;9.85;;
43606;SDS011;29197;44.788;10.366;2023-05-23T05:00:37;13.68;;;10.40;;
43606;SDS011;29197;44.788;10.366;2023-05-23T05:03:26;14.27;;;10.32;;
43606;SDS011;29197;44.788;10.366;2023-05-23T05:06:15;18.08;;;9.98;;
43606;SDS011;29197;44.788;10.366;2023-05-23T05:09:05;15.32;;;10.07;;
43606;SDS011;29197;44.788;10.366;2023-05-23T05:11:54;16.48;;;10.10;;
43606;SDS011;29197;44.788;10.366;2023-05-23T05:14:43;16.23;;;10.77;;
43606;SDS011;29197;44.788;10.366;2023-05-23T05:17:32;14.85;;;10.10;;
43606;SDS011;29197;44.788;10.366;2023-05-23T05:20:22;11.82;;;9.95;;
43606;SDS011;29197;44.788;10.366;2023-05-23T05:23:11;14.90;;;10.45;;
43606;SDS011;29197;44.788;10.366;2023-05-23T05:26:01;20.73;;;10.13;;
43606;SDS011;29197;44.788;10.366;2023-05-23T05:28:50;13.40;;;9.70;;
43606;SDS011;29197;44.788;10.366;2023-05-23T05:31:39;12.02;;;9.20;;
43606;SDS011;29197;44.788;10.366;2023-05-23T05:34:29;13.88;;;11.23;;
43606;SDS011;29197;44.788;10.366;2023-05-23T05:37:19;14.73;;;10.00;;
43606;SDS011;29197;44.788;10.366;2023-05-23T05:40:08;20.10;;;10.68;;
43606;SDS011;29197;44.788;10.366;2023-05-23T05:42:59;14.18;;;9.75;;
43606;SDS011;29197;44.788;10.366;2023-05-23T05:45:48;13.93;;;9.85;;
43606;SDS011;29197;44.788;10.366;2023-05-23T05:48:37;14.13;;;9.98;;
43606;SDS011;29197;44.788;10.366;2023-05-23T05:51:25;12.55;;;9.65;;
43606;SDS011;29197;44.788;10.366;2023-05-23T05:54:15;11.55;;;9.63;;
43606;SDS011;29197;44.788;10.366;2023-05-23T05:57:05;15.45;;;10.10;;
43606;SDS011;29197;44.788;10.366;2023-05-23T05:59:55;13.38;;;9.40;;
43606;SDS011;29197;44.788;10.366;2023-05-23T06:02:44;15.07;;;9.02;;
43606;SDS011;29197;44.788;10.366;2023-05-23T06:05:34;16.60;;;10.20;;
43606;SDS011;29197;44.788;10.366;2023-05-23T06:08:25;11.45;;;8.57;;
43606;SDS011;29197;44.788;10.366;2023-05-23T06:11:13;16.10;;;9.80;;
43606;SDS011;29197;44.788;10.366;2023-05-23T06:14:02;16.52;;;8.13;;
43606;SDS011;29197;44.788;10.366;2023-05-23T06:16:53;12.50;;;8.13;;
43606;SDS011;29197;44.788;10.366;2023-05-23T06:19:42;9.25;;;7.75;;
43606;SDS011;29197;44.788;10.366;2023-05-23T06:22:31;12.45;;;8.60;;
43606;SDS011;29197;44.788;10.366;2023-05-23T06:25:20;12.68;;;8.50;;
43606;SDS011;29197;44.788;10.366;2023-05-23T06:28:09;10.60;;;8.23;;
43606;SDS011;29197;44.788;10.366;2023-05-23T06:30:57;8.50;;;7.57;;
43606;SDS011;29197;44.788;10.366;2023-05-23T06:33:47;11.73;;;7.85;;
43606;SDS011;29197;44.788;10.366;2023-05-23T06:36:36;9.63;;;6.80;;
43606;SDS011;29197;44.788;10.366;2023-05-23T06:39:25;9.00;;;7.03;;
43606;SDS011;29197;44.788;10.366;2023-05-23T06:42:14;8.95;;;6.95;;
43606;SDS011;29197;44.788;10.366;2023-05-23T06:45:03;11.23;;;8.13;;
43606;SDS011;29197;44.788;10.366;2023-05-23T06:47:52;8.65;;;7.00;;
43606;SDS011;29197;44.788;10.366;2023-05-23T06:50:42;12.15;;;7.00;;
43606;SDS011;29197;44.788;10.366;2023-05-23T06:53:31;11.40;;;7.90;;
43606;SDS011;29197;44.788;10.366;2023-05-23T06:56:19;9.60;;;7.32;;
43606;SDS011;29197;44.788;10.366;2023-05-23T06:59:09;11.40;;;7.88;;
43606;SDS011;29197;44.788;10.366;2023-05-23T07:01:57;11.27;;;7.38;;
43606;SDS011;29197;44.788;10.366;2023-05-23T07:04:46;13.35;;;6.97;;
43606;SDS011;29197;44.788;10.366;2023-05-23T07:07:36;8.70;;;6.82;;
43606;SDS011;29197;44.788;10.366;2023-05-23T07:10:25;10.68;;;7.47;;
43606;SDS011;29197;44.788;10.366;2023-05-23T07:13:14;13.02;;;7.20;;
43606;SDS011;29197;44.788;10.366;2023-05-23T07:16:03;10.10;;;6.78;;
43606;SDS011;29197;44.788;10.366;2023-05-23T07:18:52;8.85;;;6.13;;
43606;SDS011;29197;44.788;10.366;2023-05-23T07:21:41;9.75;;;6.78;;
43606;SDS011;29197;44.788;10.366;2023-05-23T07:24:31;8.82;;;6.72;;
43606;SDS011;29197;44.788;10.366;2023-05-23T07:27:20;15.35;;;7.20;;
43606;SDS011;29197;44.788;10.366;2023-05-23T07:30:08;13.85;;;6.82;;
43606;SDS011;29197;44.788;10.366;2023-05-23T07:32:57;8.52;;;6.03;;
43606;SDS011;29197;44.788;10.366;2023-05-23T07:35:46;9.48;;;5.95;;
43606;SDS011;29197;44.788;10.366;2023-05-23T07:38:35;9.45;;;7.25;;
43606;SDS011;29197;44.788;10.366;2023-05-23T07:41:25;7.47;;;5.82;;
43606;SDS011;29197;44.788;10.366;2023-05-23T07:44:14;13.15;;;7.15;;
43606;SDS011;29197;44.788;10.366;2023-05-23T07:47:03;11.27;;;6.07;;
43606;SDS011;29197;44.788;10.366;2023-05-23T07:49:52;9.68;;;6.70;;
43606;SDS011;29197;44.788;10.366;2023-05-23T07:52:41;12.77;;;7.05;;
43606;SDS011;29197;44.788;10.366;2023-05-23T07:55:30;11.13;;;6.63;;
43606;SDS011;29197;44.788;10.366;2023-05-23T07:58:20;9.30;;;6.20;;
43606;SDS011;29197;44.788;10.366;2023-05-23T08:01:09;9.85;;;6.95;;
43606;SDS011;29197;44.788;10.366;2023-05-23T08:03:58;8.07;;;5.80;;
43606;SDS011;29197;44.788;10.366;2023-05-23T08:06:47;10.02;;;7.32;;
43606;SDS011;29197;44.788;10.366;2023-05-23T08:09:50;9.10;;;7.10;;
43606;SDS011;29197;44.788;10.366;2023-05-23T08:12:39;13.55;;;9.02;;
43606;SDS011;29197;44.788;10.366;2023-05-23T08:15:29;10.93;;;8.63;;
43606;SDS011;29197;44.788;10.366;2023-05-23T08:18:18;10.27;;;7.45;;
43606;SDS011;29197;44.788;10.366;2023-05-23T08:21:07;10.77;;;8.05;;
43606;SDS011;29197;44.788;10.366;2023-05-23T08:23:56;10.68;;;8.43;;
43606;SDS011;29197;44.788;10.366;2023-05-23T08:26:45;12.07;;;9.00;;
43606;SDS011;29197;44.788;10.366;2023-05-23T08:29:34;17.08;;;9.70;;
43606;SDS011;29197;44.788;10.366;2023-05-23T08:32:24;15.40;;;9.65;;
43606;SDS011;29197;44.788;10.366;2023-05-23T08:35:13;14.13;;;9.18;;
43606;SDS011;29197;44.788;10.366;2023-05-23T08:38:05;15.60;;;8.75;;
43606;SDS011;29197;44.788;10.366;2023-05-23T08:40:54;12.25;;;8.38;;
43606;SDS011;29197;44.788;10.366;2023-05-23T08:43:43;12.82;;;8.20;;
43606;SDS011;29197;44.788;10.366;2023-05-23T08:46:33;11.05;;;8.45;;
43606;SDS011;29197;44.788;10.366;2023-05-23T08:49:25;14.18;;;10.40;;
43606;SDS011;29197;44.788;10.366;2023-05-23T08:52:13;11.10;;;8.38;;
43606;SDS011;29197;44.788;10.366;2023-05-23T08:55:05;10.68;;;8.35;;
43606;SDS011;29197;44.788;10.366;2023-05-23T08:57:54;12.35;;;9.32;;
43606;SDS011;29197;44.788;10.366;2023-05-23T09:00:44;8.50;;;6.75;;
43606;SDS011;29197;44.788;10.366;2023-05-23T09:03:34;11.35;;;7.93;;
43606;SDS011;29197;44.788;10.366;2023-05-23T09:06:25;13.20;;;9.65;;
43606;SDS011;29197;44.788;10.366;2023-05-23T09:09:14;12.80;;;9.15;;
43606;SDS011;29197;44.788;10.366;2023-05-23T09:12:03;12.30;;;8.85;;
43606;SDS011;29197;44.788;10.366;2023-05-23T09:14:52;13.25;;;8.20;;
43606;SDS011;29197;44.788;10.366;2023-05-23T09:17:41;10.93;;;8.15;;
43606;SDS011;29197;44.788;10.366;2023-05-23T09:20:30;8.45;;;6.72;;
43606;SDS011;29197;44.788;10.366;2023-05-23T09:23:20;10.45;;;8.30;;
43606;SDS011;29197;44.788;10.366;2023-05-23T09:26:09;15.82;;;10.05;;
43606;SDS011;29197;44.788;10.366;2023-05-23T09:28:59;15.43;;;10.60;;
43606;SDS011;29197;44.788;10.366;2023-05-23T09:31:47;10.55;;;9.05;;
43606;SDS011;29197;44.788;10.366;2023-05-23T09:34:38;11.18;;;7.57;;
43606;SDS011;29197;44.788;10.366;2023-05-23T09:37:28;12.68;;;10.30;;
43606;SDS011;29197;44.788;10.366;2023-05-23T09:40:19;13.05;;;9.90;;
43606;SDS011;29197;44.788;10.366;2023-05-23T09:43:08;10.15;;;7.70;;
43606;SDS011;29197;44.788;10.366;2023-05-23T09:45:59;15.32;;;8.70;;
43606;SDS011;29197;44.788;10.366;2023-05-23T09:48:48;10.23;;;8.10;;
43606;SDS011;29197;44.788;10.366;2023-05-23T09:51:38;12.30;;;9.93;;
43606;SDS011;29197;44.788;10.366;2023-05-23T09:54:27;7.55;;;6.72;;
43606;SDS011;29197;44.788;10.366;2023-05-23T09:57:17;9.45;;;7.25;;
43606;SDS011;29197;44.788;10.366;2023-05-23T10:00:09;14.00;;;11.15;;
43606;SDS011;29197;44.788;10.366;2023-05-23T10:03:03;10.55;;;8.23;;
43606;SDS011;29197;44.788;10.366;2023-05-23T10:05:58;10.27;;;8.10;;
43606;SDS011;29197;44.788;10.366;2023-05-23T10:08:51;11.63;;;9.20;;
43606;SDS011;29197;44.788;10.366;2023-05-23T10:14:55;11.20;;;7.72;;
43606;SDS011;29197;44.788;10.366;2023-05-23T10:17:56;13.35;;;9.85;;
43606;SDS011;29197;44.788;10.366;2023-05-23T10:20:56;12.20;;;9.38;;
43606;SDS011;29197;44.788;10.366;2023-05-23T10:23:54;10.70;;;7.18;;
43606;SDS011;29197;44.788;10.366;2023-05-23T10:26:44;12.98;;;9.50;;
43606;SDS011;29197;44.788;10.366;2023-05-23T10:29:33;10.85;;;8.35;;
43606;SDS011;29197;44.788;10.366;2023-05-23T10:32:24;9.20;;;7.53;;
43606;SDS011;29197;44.788;10.366;2023-05-23T10:35:15;10.90;;;7.47;;
43606;SDS011;29197;44.788;10.366;2023-05-23T10:38:10;13.93;;;10.32;;
43606;SDS011;29197;44.788;10.366;2023-05-23T10:41:09;8.23;;;6.65;;
43606;SDS011;29197;44.788;10.366;2023-05-23T10:44:01;10.23;;;8.20;;
43606;SDS011;29197;44.788;10.366;2023-05-23T10:46:56;9.48;;;8.00;;
43606;SDS011;29197;44.788;10.366;2023-05-23T10:49:50;12.82;;;8.90;;
43606;SDS011;29197;44.788;10.366;2023-05-23T10:52:40;9.85;;;7.95;;
43606;SDS011;29197;44.788;10.366;2023-05-23T10:55:32;7.72;;;6.13;;
43606;SDS011;29197;44.788;10.366;2023-05-23T10:58:22;14.18;;;8.40;;
43606;SDS011;29197;44.788;10.366;2023-05-23T11:01:12;14.32;;;8.93;;
43606;SDS011;29197;44.788;10.366;2023-05-23T11:04:03;10.73;;;7.43;;
43606;SDS011;29197;44.788;10.366;2023-05-23T11:06:54;9.38;;;6.03;;
43606;SDS011;29197;44.788;10.366;2023-05-23T11:12:50;8.98;;;7.57;;
43606;SDS011;29197;44.788;10.366;2023-05-23T11:15:53;9.43;;;6.57;;
43606;SDS011;29197;44.788;10.366;2023-05-23T11:18:42;8.55;;;7.13;;
43606;SDS011;29197;44.788;10.366;2023-05-23T11:21:31;9.32;;;6.78;;
43606;SDS011;29197;44.788;10.366;2023-05-23T11:24:21;6.90;;;6.13;;
43606;SDS011;29197;44.788;10.366;2023-05-23T11:27:10;7.38;;;5.70;;
43606;SDS011;29197;44.788;10.366;2023-05-23T11:30:00;8.75;;;6.68;;
43606;SDS011;29197;44.788;10.366;2023-05-23T11:32:51;12.48;;;6.85;;
43606;SDS011;29197;44.788;10.366;2023-05-23T11:35:41;8.95;;;6.60;;
43606;SDS011;29197;44.788;10.366;2023-05-23T11:38:31;8.02;;;6.00;;
43606;SDS011;29197;44.788;10.366;2023-05-23T11:41:22;7.65;;;6.00;;
43606;SDS011;29197;44.788;10.366;2023-05-23T11:44:12;6.25;;;5.30;;
43606;SDS011;29197;44.788;10.366;2023-05-23T11:47:01;6.22;;;4.88;;
43606;SDS011;29197;44.788;10.366;2023-05-23T11:49:50;7.13;;;5.60;;
43606;SDS011;29197;44.788;10.366;2023-05-23T11:52:39;6.25;;;5.50;;
43606;SDS011;29197;44.788;10.366;2023-05-23T11:55:27;6.18;;;5.40;;
43606;SDS011;29197;44.788;10.366;2023-05-23T11:58:18;6.78;;;5.68;;
43606;SDS011;29197;44.788;10.366;2023-05-23T12:01:07;7.95;;;5.47;;
43606;SDS011;29197;44.788;10.366;2023-05-23T12:03:57;6.78;;;4.60;;
43606;SDS011;29197;44.788;10.366;2023-05-23T12:06:45;10.05;;;6.25;;
43606;SDS011;29197;44.788;10.366;2023-05-23T12:09:41;7.00;;;5.72;;
43606;SDS011;29197;44.788;10.366;2023-05-23T12:12:30;7.10;;;4.97;;
43606;SDS011;29197;44.788;10.366;2023-05-23T12:15:24;5.40;;;4.60;;
43606;SDS011;29197;44.788;10.366;2023-05-23T12:18:14;5.85;;;5.15;;
43606;SDS011;29197;44.788;10.366;2023-05-23T12:21:03;5.28;;;4.13;;
43606;SDS011;29197;44.788;10.366;2023-05-23T12:23:55;6.25;;;4.93;;
43606;SDS011;29197;44.788;10.366;2023-05-23T12:26:47;7.30;;;5.60;;
43606;SDS011;29197;44.788;10.366;2023-05-23T12:29:36;7.57;;;5.00;;
43606;SDS011;29197;44.788;10.366;2023-05-23T12:32:26;5.80;;;4.20;;
43606;SDS011;29197;44.788;10.366;2023-05-23T12:35:15;5.28;;;4.18;;
43606;SDS011;29197;44.788;10.366;2023-05-23T12:38:04;7.25;;;4.60;;
43606;SDS011;29197;44.788;10.366;2023-05-23T12:41:06;5.72;;;4.28;;
43606;SDS011;29197;44.788;10.366;2023-05-23T12:43:55;5.63;;;4.07;;
43606;SDS011;29197;44.788;10.366;2023-05-23T12:46:44;7.28;;;4.45;;
43606;SDS011;29197;44.788;10.366;2023-05-23T12:49:35;5.38;;;4.20;;
43606;SDS011;29197;44.788;10.366;2023-05-23T12:52:25;4.95;;;3.53;;
43606;SDS011;29197;44.788;10.366;2023-05-23T12:55:13;5.35;;;3.75;;
43606;SDS011;29197;44.788;10.366;2023-05-23T12:58:02;4.43;;;3.40;;
43606;SDS011;29197;44.788;10.366;2023-05-23T13:00:50;5.25;;;4.00;;
43606;SDS011;29197;44.788;10.366;2023-05-23T13:03:39;6.57;;;4.15;;
43606;SDS011;29197;44.788;10.366;2023-05-23T13:06:29;5.75;;;4.40;;
43606;SDS011;29197;44.788;10.366;2023-05-23T13:09:19;5.45;;;3.53;;
43606;SDS011;29197;44.788;10.366;2023-05-23T13:12:07;5.53;;;4.22;;
43606;SDS011;29197;44.788;10.366;2023-05-23T13:14:56;5.13;;;3.80;;
43606;SDS011;29197;44.788;10.366;2023-05-23T13:17:45;9.45;;;4.72;;
43606;SDS011;29197;44.788;10.366;2023-05-23T13:20:36;8.32;;;4.80;;
43606;SDS011;29197;44.788;10.366;2023-05-23T13:23:26;6.38;;;4.05;;
43606;SDS011;29197;44.788;10.366;2023-05-23T13:26:15;4.70;;;3.58;;
43606;SDS011;29197;44.788;10.366;2023-05-23T13:29:03;6.57;;;4.82;;
43606;SDS011;29197;44.788;10.366;2023-05-23T13:31:52;5.72;;;4.05;;
43606;SDS011;29197;44.788;10.366;2023-05-23T13:34:40;4.57;;;3.13;;
43606;SDS011;29197;44.788;10.366;2023-05-23T13:37:29;6.47;;;3.80;;
43606;SDS011;29197;44.788;10.366;2023-05-23T13:40:19;6.05;;;4.30;;
43606;SDS011;29197;44.788;10.366;2023-05-23T13:43:08;5.72;;;4.47;;
43606;SDS011;29197;44.788;10.366;2023-05-23T13:45:57;7.13;;;4.65;;
43606;SDS011;29197;44.788;10.366;2023-05-23T13:48:47;5.80;;;3.83;;
43606;SDS011;29197;44.788;10.366;2023-05-23T13:51:36;4.40;;;3.70;;
43606;SDS011;29197;44.788;10.366;2023-05-23T13:54:24;6.93;;;4.55;;
43606;SDS011;29197;44.788;10.366;2023-05-23T13:57:14;7.40;;;4.60;;
43606;SDS011;29197;44.788;10.366;2023-05-23T14:00:03;5.80;;;4.28;;
43606;SDS011;29197;44.788;10.366;2023-05-23T14:02:54;4.53;;;4.00;;
43606;SDS011;29197;44.788;10.366;2023-05-23T14:05:43;4.43;;;3.95;;
43606;SDS011;29197;44.788;10.366;2023-05-23T14:08:31;6.05;;;4.28;;
43606;SDS011;29197;44.788;10.366;2023-05-23T14:11:20;6.25;;;3.95;;
43606;SDS011;29197;44.788;10.366;2023-05-23T14:14:10;4.40;;;4.00;;
43606;SDS011;29197;44.788;10.366;2023-05-23T14:16:59;4.70;;;3.72;;
43606;SDS011;29197;44.788;10.366;2023-05-23T14:19:47;6.00;;;4.18;;
43606;SDS011;29197;44.788;10.366;2023-05-23T14:22:36;8.98;;;4.10;;
43606;SDS011;29197;44.788;10.366;2023-05-23T14:25:24;5.25;;;4.43;;
43606;SDS011;29197;44.788;10.366;2023-05-23T14:28:13;7.22;;;4.68;;
43606;SDS011;29197;44.788;10.366;2023-05-23T14:31:03;8.23;;;4.90;;
43606;SDS011;29197;44.788;10.366;2023-05-23T14:33:52;7.18;;;4.22;;
43606;SDS011;29197;44.788;10.366;2023-05-23T14:36:40;4.55;;;4.05;;
43606;SDS011;29197;44.788;10.366;2023-05-23T14:39:29;4.68;;;3.72;;
43606;SDS011;29197;44.788;10.366;2023-05-23T14:42:17;6.55;;;3.60;;
43606;SDS011;29197;44.788;10.366;2023-05-23T14:45:06;5.72;;;3.90;;
43606;SDS011;29197;44.788;10.366;2023-05-23T14:47:56;6.38;;;4.13;;
43606;SDS011;29197;44.788;10.366;2023-05-23T14:50:45;7.10;;;4.72;;
43606;SDS011;29197;44.788;10.366;2023-05-23T14:53:33;5.47;;;3.75;;
43606;SDS011;29197;44.788;10.366;2023-05-23T14:56:22;4.32;;;3.58;;
43606;SDS011;29197;44.788;10.366;2023-05-23T14:59:12;7.45;;;4.30;;
43606;SDS011;29197;44.788;10.366;2023-05-23T15:02:01;6.28;;;4.25;;
43606;SDS011;29197;44.788;10.366;2023-05-23T15:04:51;4.82;;;3.55;;
43606;SDS011;29197;44.788;10.366;2023-05-23T15:07:40;6.30;;;4.55;;
43606;SDS011;29197;44.788;10.366;2023-05-23T15:10:28;5.40;;;4.35;;
43606;SDS011;29197;44.788;10.366;2023-05-23T15:13:17;9.07;;;4.20;;
43606;SDS011;29197;44.788;10.366;2023-05-23T15:16:05;7.45;;;3.70;;
43606;SDS011;29197;44.788;10.366;2023-05-23T15:18:54;6.22;;;3.70;;
43606;SDS011;29197;44.788;10.366;2023-05-23T15:21:44;4.22;;;3.33;;
43606;SDS011;29197;44.788;10.366;2023-05-23T15:24:37;4.50;;;3.30;;
43606;SDS011;29197;44.788;10.366;2023-05-23T15:27:26;4.93;;;3.95;;
43606;SDS011;29197;44.788;10.366;2023-05-23T15:30:15;4.68;;;3.80;;
43606;SDS011;29197;44.788;10.366;2023-05-23T15:33:04;7.57;;;4.07;;
43606;SDS011;29197;44.788;10.366;2023-05-23T15:35:53;6.75;;;3.75;;
43606;SDS011;29197;44.788;10.366;2023-05-23T15:38:44;4.88;;;3.33;;
43606;SDS011;29197;44.788;10.366;2023-05-23T15:41:33;3.80;;;3.45;;
43606;SDS011;29197;44.788;10.366;2023-05-23T15:44:21;3.80;;;3.28;;
43606;SDS011;29197;44.788;10.366;2023-05-23T15:47:10;4.93;;;3.58;;
43606;SDS011;29197;44.788;10.366;2023-05-23T15:49:58;6.40;;;4.10;;
43606;SDS011;29197;44.788;10.366;2023-05-23T15:52:47;4.78;;;3.17;;
43606;SDS011;29197;44.788;10.366;2023-05-23T15:55:37;4.40;;;3.22;;
43606;SDS011;29197;44.788;10.366;2023-05-23T15:58:28;4.38;;;3.10;;
43606;SDS011;29197;44.788;10.366;2023-05-23T16:01:17;3.92;;;2.70;;
43606;SDS011;29197;44.788;10.366;2023-05-23T16:04:06;4.63;;;3.55;;
43606;SDS011;29197;44.788;10.366;2023-05-23T16:06:54;4.63;;;3.83;;
43606;SDS011;29197;44.788;10.366;2023-05-23T16:09:43;5.85;;;4.40;;
43606;SDS011;29197;44.788;10.366;2023-05-23T16:12:33;4.82;;;3.95;;
43606;SDS011;29197;44.788;10.366;2023-05-23T16:15:21;7.10;;;3.90;;
43606;SDS011;29197;44.788;10.366;2023-05-23T16:18:10;4.50;;;3.70;;
43606;SDS011;29197;44.788;10.366;2023-05-23T16:20:58;4.00;;;3.50;;
43606;SDS011;29197;44.788;10.366;2023-05-23T16:23:47;5.13;;;3.50;;
43606;SDS011;29197;44.788;10.366;2023-05-23T16:26:36;5.90;;;3.30;;
43606;SDS011;29197;44.788;10.366;2023-05-23T16:29:26;4.40;;;3.22;;
43606;SDS011;29197;44.788;10.366;2023-05-23T16:32:15;3.85;;;3.30;;
43606;SDS011;29197;44.788;10.366;2023-05-23T16:35:03;4.78;;;3.17;;
43606;SDS011;29197;44.788;10.366;2023-05-23T16:37:52;3.88;;;3.45;;
43606;SDS011;29197;44.788;10.366;2023-05-23T16:40:42;3.25;;;2.95;;